WetterOnline ( https://www.wetteronline.ch )

Wetter aktuell Burg

Aktuelles Wetter: Genthin (39m)

6-stündlich | Neueste Meldungen
Ortszeit Temperatur Wetter
Fr, 03.07. 8:00 17.0° C wolkenlos
Fr, 03.07. 2:00 16.5° C bewölkt
Do, 02.07. 20:00 22.7° C bedeckt
Do, 02.07. 14:00 22.1° C bewölkt
Do, 02.07. 8:00 17.6° C bedeckt
Do, 02.07. 2:00 16.1° C wolkig
Mi, 01.07. 20:00 18.5° C starker Regen
Mi, 01.07. 14:00 20.8° C bewölkt
Ortszeit Temperatur Wetter
Fr, 03.07. 12:00 20.8° C bewölkt
Fr, 03.07. 11:50 20.8° C bewölkt
Fr, 03.07. 11:40 20.4° C bewölkt
Fr, 03.07. 11:30 19.5° C wolkig
Fr, 03.07. 11:20 19.5° C wolkig
Fr, 03.07. 11:10 20.5° C leicht bewölkt
Fr, 03.07. 11:00 19.2° C wolkig
Fr, 03.07. 10:30 19.3° C wolkig
Fr, 03.07. 10:00 19.2° C bewölkt
Fr, 03.07. 9:30 19.3° C leicht bewölkt
Fr, 03.07. 9:00 18.4° C leicht bewölkt
Fr, 03.07. 8:30 17.7° C fast wolkenlos
Ortszeit Relative Feuchte Sichtweite
Fr, 03.07. 8:00 75% 30 km
Fr, 03.07. 2:00 80% 45 km
Do, 02.07. 20:00 53% 60 km
Do, 02.07. 14:00 58% 55 km
Do, 02.07. 8:00 - 40 km
Do, 02.07. 2:00 - 40 km
Mi, 01.07. 20:00 - 1.7 km
Mi, 01.07. 14:00 - >70 km
Ortszeit Relative Feuchte Sichtweite
Fr, 03.07. 12:00 52% 45 km
Fr, 03.07. 11:50 52% -
Fr, 03.07. 11:40 54% -
Fr, 03.07. 11:30 56% 45 km
Fr, 03.07. 11:20 56% -
Fr, 03.07. 11:10 52% -
Fr, 03.07. 11:00 57% 45 km
Fr, 03.07. 10:30 56% 55 km
Fr, 03.07. 10:00 59% 18 km
Fr, 03.07. 9:30 56% 50 km
Fr, 03.07. 9:00 63% 40 km
Fr, 03.07. 8:30 69% 45 km
Ortszeit Niederschlagsmenge Niederschlagsart
Fr, 03.07. 8:00 0.1 l/m2 in 12 Std. Regen
Fr, 03.07. 2:00 0.1 l/m2 in 6 Std. Regen
Do, 02.07. 20:00 0.0 l/m2 in 3 Std. -
Do, 02.07. 14:00 0.1 l/m2 in 3 Std. Regen
Do, 02.07. 8:00 0.5 l/m2 in 12 Std. Regen
Do, 02.07. 2:00 0.5 l/m2 in 6 Std. Regen
Mi, 01.07. 20:00 3 l/m2 in 12 Std. Regen
Mi, 01.07. 14:00 0.1 l/m2 in 6 Std. Regen
Ortszeit Niederschlagsmenge Niederschlagsart
Fr, 03.07. 12:00 0.0 l/m2 in 1 Std. -
Fr, 03.07. 11:50 keine Meldung -
Fr, 03.07. 11:40 keine Meldung -
Fr, 03.07. 11:30 0.0 l/m2 in 1 Std. -
Fr, 03.07. 11:20 keine Meldung -
Fr, 03.07. 11:10 keine Meldung -
Fr, 03.07. 11:00 0.0 l/m2 in 1 Std. -
Fr, 03.07. 10:30 0.0 l/m2 in 1 Std. -
Fr, 03.07. 10:00 0.0 l/m2 in 1 Std. -
Fr, 03.07. 9:30 0.0 l/m2 in 1 Std. -
Fr, 03.07. 9:00 0.0 l/m2 in 1 Std. -
Fr, 03.07. 8:30 0.0 l/m2 in 1 Std. -
Ortszeit Stärke Spitze Richtung
km/h Bft. km/h Grad Sektor
Fr, 03.07. 8:00 14 3 29 290° W
Fr, 03.07. 2:00 4 1 25 260° W
Do, 02.07. 20:00 6 1 30 240° SW
Do, 02.07. 14:00 13 3 24 290° W
Do, 02.07. 8:00 6 1 15 220° SW
Do, 02.07. 2:00 7 2 22 230° SW
Mi, 01.07. 20:00 13 3 31 290° W
Mi, 01.07. 14:00 13 3 31 240° SW
Ortszeit Stärke Spitze Richtung
km/h Bft. km/h Grad Sektor
Fr, 03.07. 12:00 11 2 30 260° W
Fr, 03.07. 11:50 11 2 - 260° W
Fr, 03.07. 11:40 14 3 - 250° W
Fr, 03.07. 11:30 17 3 30 260° W
Fr, 03.07. 11:20 17 3 - 260° W
Fr, 03.07. 11:10 14 3 - 280° W
Fr, 03.07. 11:00 17 3 31 270° W
Fr, 03.07. 10:30 17 3 31 270° W
Fr, 03.07. 10:00 15 3 28 280° W
Fr, 03.07. 9:30 18 3 29 290° W
Fr, 03.07. 9:00 17 3 28 290° W
Fr, 03.07. 8:30 13 3 28 270° W
Ortszeit Untergrenze Bedeckung Gattung
total tief tief mittel hoch
Fr, 03.07. 8:00 - 0/8 0/8 - - -
Fr, 03.07. 2:00 750 m 8/8 4/8 - - -
Do, 02.07. 20:00 3000 m 8/8 8/8 - - -
Do, 02.07. 14:00 1020 m 7/8 7/8 - - -
Do, 02.07. 8:00 1800 m 8/8 8/8 - - -
Do, 02.07. 2:00 3000 m 5/8 5/8 - - -
Mi, 01.07. 20:00 1050 m 7/8 7/8 - - -
Mi, 01.07. 14:00 540 m 8/8 5/8 - - -
Ortszeit Bedeckungsgrad in Achtel und Wolkenuntergrenze
Fr, 03.07. 12:00 2(1170m) 7(2100m)
Fr, 03.07. 11:50 2(1170m) 2(1800m) 7(2100m)
Fr, 03.07. 11:40 2(1200m) 7(2400m) 7(9000m)
Fr, 03.07. 11:30 1(1110m) 4(2100m) 5(9000m)
Fr, 03.07. 11:20 1(1110m) 4(2100m) 5(9000m)
Fr, 03.07. 11:10 2(1080m) 2(1440m) 4(9000m)
Fr, 03.07. 11:00 3(1020m) 7(9000m) 7(10500m)
Fr, 03.07. 10:30 2(930m) 5(1380m) 6(1500m)
Fr, 03.07. 10:00 6(930m) 7(1170m) 6(1380m)
Fr, 03.07. 9:30 2(870m)
Fr, 03.07. 9:00 2(780m)
Fr, 03.07. 8:30 1(600m)
Ortszeit Luftdruck NN (hPa) Tendenz (hPa in 3 Std.)
Fr, 03.07. 8:00 1015 + 1,4
Fr, 03.07. 2:00 1013 + 0,8
Do, 02.07. 20:00 1010 + 0,3
Do, 02.07. 14:00 1010 + 0,2
Do, 02.07. 8:00 1009 + 1,0
Do, 02.07. 2:00 1008 + 0,8
Mi, 01.07. 20:00 1007 0,0
Mi, 01.07. 14:00 1007 - 0,2
Ortszeit Luftdruck NN (hPa) Tendenz (hPa in 3 Std.)
Fr, 03.07. 12:00 1016 + 0,7
Fr, 03.07. 11:50 1016 keine Meldung
Fr, 03.07. 11:40 1016 keine Meldung
Fr, 03.07. 11:30 1016 + 0,6
Fr, 03.07. 11:20 1016 keine Meldung
Fr, 03.07. 11:10 1016 keine Meldung
Fr, 03.07. 11:00 1016 + 0,8
Fr, 03.07. 10:30 1016 + 1,0
Fr, 03.07. 10:00 1016 + 1,0
Fr, 03.07. 9:30 1015 + 1,1
Fr, 03.07. 9:00 1015 + 1,3
Fr, 03.07. 8:30 1015 + 1,4
Ortszeit Schneehöhe (cm)
Fr, 03.07. 8:00 -
Fr, 03.07. 2:00 -
Do, 02.07. 20:00 -
Do, 02.07. 14:00 -
Do, 02.07. 8:00 -
Do, 02.07. 2:00 -
Mi, 01.07. 20:00 -
Mi, 01.07. 14:00 -
Ortszeit Schneehöhe (cm)
Fr, 03.07. 12:00 -
Fr, 03.07. 11:50 -
Fr, 03.07. 11:40 -
Fr, 03.07. 11:30 -
Fr, 03.07. 11:20 -
Fr, 03.07. 11:10 -
Fr, 03.07. 11:00 -
Fr, 03.07. 10:30 -
Fr, 03.07. 10:00 -
Fr, 03.07. 9:30 -
Fr, 03.07. 9:00 -
Fr, 03.07. 8:30 -
Link zu dieser Seite / Seite empfehlen

Das Wetter in ...